Time;durP1;ratioP1;P1;durP2;ratioP2;P2;SDS_P1;SDS_P2;PMS_P1;PMS_P2;Temp;Humidity;BMP_temperature;BMP_pressure;BME280_temperature;BME280_humidity;BME280_pressure;Samples;Min_cycle;Max_cycle;Signal;HPM_P1;HPM_P2
2022/04/14 00:04:36;;;;;;;23.33;13.30;;;10.50;99.90;;;;;;5133275;27;20118;-72
2022/04/14 00:07:02;;;;;;;21.75;13.25;;;10.50;99.90;;;;;;5080627;27;20112;-72
2022/04/14 00:09:28;;;;;;;25.33;14.13;;;10.40;99.90;;;;;;5097425;27;20121;-73
2022/04/14 00:11:55;;;;;;;22.95;13.50;;;10.40;99.90;;;;;;5115951;27;20424;-72
2022/04/14 00:18:03;;;;;;;26.00;14.15;;;10.30;99.90;;;;;;5112435;28;20386;-72
2022/04/14 00:20:29;;;;;;;25.02;14.85;;;10.30;99.90;;;;;;5076242;28;20059;-72
2022/04/14 00:22:59;;;;;;;29.35;17.20;;;10.20;99.90;;;;;;5076992;28;20112;-72
2022/04/14 00:25:29;;;;;;;28.10;17.10;;;10.20;99.90;;;;;;5094012;28;20094;-73
2022/04/14 00:27:56;;;;;;;30.83;17.48;;;10.20;99.90;;;;;;5076423;28;20048;-73
2022/04/14 00:30:25;;;;;;;29.67;16.83;;;10.20;99.90;;;;;;5077044;28;20052;-73
2022/04/14 00:32:53;;;;;;;30.77;18.60;;;10.10;99.90;;;;;;5092824;28;20056;-73
2022/04/14 00:35:20;;;;;;;36.28;20.23;;;10.10;99.90;;;;;;5093863;28;20047;-72
2022/04/14 00:38:14;;;;;;;35.80;19.52;;;10.10;99.90;;;;;;5094677;28;20039;-72
2022/04/14 00:40:39;;;;;;;32.08;19.92;;;10.00;99.90;;;;;;5015621;28;20892;-73
2022/04/14 00:43:13;;;;;;;31.17;20.05;;;10.00;99.90;;;;;;5017016;28;20132;-74
2022/04/14 00:46:00;;;;;;;;;;;10.00;99.90;;;;;;5017737;28;20084;-73
2022/04/14 00:48:28;;;;;;;40.55;22.67;;;9.90;99.90;;;;;;5015958;28;19959;-73
2022/04/14 00:50:57;;;;;;;37.53;23.13;;;9.90;99.90;;;;;;5032240;28;20138;-73
2022/04/14 00:53:23;;;;;;;39.25;23.88;;;9.80;99.90;;;;;;5031812;28;20049;-73
2022/04/14 00:55:51;;;;;;;37.33;23.45;;;9.80;99.90;;;;;;5032051;28;20049;-73
2022/04/14 00:58:16;;;;;;;39.58;23.48;;;9.80;99.90;;;;;;5016056;28;20095;-73
2022/04/14 01:00:42;;;;;;;43.92;25.27;;;9.70;99.90;;;;;;5032228;28;20519;-72
2022/04/14 01:03:11;;;;;;;43.20;24.95;;;9.70;99.90;;;;;;5032073;28;20577;-73
2022/04/14 01:05:42;;;;;;;40.47;26.38;;;9.70;99.90;;;;;;5032239;28;20052;-72
2022/04/14 01:08:10;;;;;;;45.63;25.20;;;9.60;99.90;;;;;;5032657;28;20088;-72
2022/04/14 01:10:37;;;;;;;43.17;25.30;;;9.60;99.90;;;;;;5021107;28;20056;-72
2022/04/14 01:13:03;;;;;;;41.88;27.08;;;9.50;99.90;;;;;;5035927;28;20056;-73
2022/04/14 01:15:29;;;;;;;50.00;27.05;;;9.50;99.90;;;;;;5052369;28;20384;-72
2022/04/14 01:17:55;;;;;;;48.33;28.17;;;9.50;99.90;;;;;;5035202;28;20511;-72
2022/04/14 01:20:23;;;;;;;48.72;28.00;;;9.40;99.90;;;;;;5053083;28;20136;-72
2022/04/14 01:22:54;;;;;;;46.33;27.20;;;9.40;99.90;;;;;;5052438;28;20091;-72
2022/04/14 01:25:20;;;;;;;45.20;28.30;;;9.40;99.90;;;;;;5052395;28;20067;-72
2022/04/14 01:27:46;;;;;;;49.75;27.45;;;9.30;99.90;;;;;;5052112;28;20523;-72
2022/04/14 01:30:12;;;;;;;50.42;30.90;;;9.30;99.90;;;;;;5035551;28;20096;-73
2022/04/14 01:32:37;;;;;;;51.42;31.60;;;9.30;99.90;;;;;;5035410;28;20052;-73
2022/04/14 01:35:07;;;;;;;49.78;28.52;;;9.20;99.90;;;;;;5052137;28;20103;-73
2022/04/14 01:37:33;;;;;;;51.22;28.52;;;9.20;99.90;;;;;;5077260;28;20448;-73
2022/04/14 01:39:59;;;;;;;60.40;32.13;;;9.20;99.90;;;;;;5093352;28;20047;-73
2022/04/14 01:42:25;;;;;;;59.03;33.38;;;9.20;99.90;;;;;;5075477;28;20135;-73
2022/04/14 01:44:50;;;;;;;62.13;32.63;;;9.30;99.90;;;;;;5097408;28;20499;-73
2022/04/14 01:47:16;;;;;;;59.42;33.05;;;9.20;99.90;;;;;;5115387;28;20048;-73
2022/04/14 01:49:42;;;;;;;53.60;31.58;;;9.20;99.90;;;;;;5097248;28;20125;-73
2022/04/14 01:52:09;;;;;;;56.85;34.28;;;9.20;99.90;;;;;;5097056;28;20055;-73
2022/04/14 01:54:36;;;;;;;52.13;29.90;;;9.20;99.90;;;;;;5080351;28;20093;-73
2022/04/14 01:57:02;;;;;;;54.30;29.85;;;9.20;99.90;;;;;;5097021;28;20055;-72
2022/04/14 01:59:28;;;;;;;52.17;30.42;;;9.10;99.90;;;;;;5097262;28;20044;-73
2022/04/14 02:01:53;;;;;;;53.72;29.33;;;9.10;99.90;;;;;;5076382;28;20052;-73
2022/04/14 02:04:19;;;;;;;51.45;30.83;;;9.00;99.90;;;;;;5076778;28;20495;-73
2022/04/14 02:06:45;;;;;;;60.20;33.50;;;9.00;99.90;;;;;;5076688;28;20091;-73
2022/04/14 02:09:12;;;;;;;54.80;31.27;;;9.00;99.90;;;;;;5077111;28;20083;-73
2022/04/14 02:11:39;;;;;;;60.10;32.75;;;8.90;99.90;;;;;;5090376;28;20062;-73
2022/04/14 02:14:05;;;;;;;67.32;35.47;;;8.90;99.90;;;;;;5063269;28;20047;-73
2022/04/14 02:16:32;;;;;;;58.25;32.85;;;8.90;99.90;;;;;;5096759;28;20063;-73
2022/04/14 02:18:57;;;;;;;53.83;29.55;;;8.90;99.90;;;;;;5096025;28;20048;-73
2022/04/14 02:21:23;;;;;;;57.30;33.83;;;8.90;99.90;;;;;;5078903;28;20063;-73
2022/04/14 02:23:49;;;;;;;70.57;36.60;;;8.90;99.90;;;;;;5096261;28;20126;-73
2022/04/14 02:26:19;;;;;;;70.10;37.40;;;8.90;99.90;;;;;;5080062;28;20043;-72
2022/04/14 02:28:45;;;;;;;63.30;36.40;;;8.90;99.90;;;;;;5096752;28;20054;-73
2022/04/14 02:31:15;;;;;;;61.15;36.40;;;8.80;99.90;;;;;;5096467;28;20066;-73
2022/04/14 02:33:41;;;;;;;66.82;34.97;;;8.80;99.90;;;;;;5079431;28;20619;-73
2022/04/14 02:36:07;;;;;;;65.03;35.50;;;8.80;99.90;;;;;;5079531;28;20056;-73
2022/04/14 02:38:33;;;;;;;65.70;36.72;;;8.80;99.90;;;;;;5096424;28;20412;-73
2022/04/14 02:40:58;;;;;;;68.82;36.95;;;8.80;99.90;;;;;;5079398;28;20047;-73
2022/04/14 02:43:24;;;;;;;79.22;40.28;;;8.70;99.90;;;;;;5079145;28;20413;-74
2022/04/14 02:45:51;;;;;;;77.05;39.72;;;8.70;99.90;;;;;;5096211;28;20055;-73
2022/04/14 02:48:17;;;;;;;79.70;40.03;;;8.70;99.90;;;;;;5095934;28;20047;-73
2022/04/14 02:50:59;;;;;;;84.15;42.70;;;8.70;99.90;;;;;;5095284;28;20051;-73
2022/04/14 02:53:28;;;;;;;82.38;43.85;;;8.70;99.90;;;;;;5095943;28;20073;-73
2022/04/14 02:55:53;;;;;;;75.57;41.88;;;8.70;99.90;;;;;;5094989;28;20079;-73
2022/04/14 02:58:22;;;;;;;84.25;44.10;;;8.70;99.90;;;;;;5096132;28;20094;-73
2022/04/14 03:00:49;;;;;;;83.22;42.33;;;8.70;99.90;;;;;;5096078;28;20048;-73
2022/04/14 03:03:16;;;;;;;76.35;41.25;;;8.70;99.90;;;;;;5093487;28;20125;-73
2022/04/14 03:05:42;;;;;;;91.88;46.22;;;8.70;99.90;;;;;;5078986;28;20055;-73
2022/04/14 03:08:13;;;;;;;80.72;42.90;;;8.60;99.90;;;;;;5095568;28;20051;-73
2022/04/14 03:10:38;;;;;;;87.45;46.90;;;8.60;99.90;;;;;;5078100;28;20047;-73
2022/04/14 03:13:06;;;;;;;99.30;45.90;;;8.60;99.90;;;;;;5078678;28;20134;-73
2022/04/14 03:15:34;;;;;;;97.72;46.42;;;8.60;99.90;;;;;;5095609;28;20142;-74
2022/04/14 03:18:03;;;;;;;81.47;43.88;;;8.60;99.90;;;;;;5114109;28;20056;-73
2022/04/14 03:20:29;;;;;;;80.82;43.97;;;8.50;99.90;;;;;;5078662;28;20052;-73
2022/04/14 03:22:58;;;;;;;90.28;45.28;;;8.50;99.90;;;;;;5078241;28;20488;-73
2022/04/14 03:25:27;;;;;;;77.85;43.65;;;8.50;99.90;;;;;;5095497;28;20395;-73
2022/04/14 03:27:53;;;;;;;87.40;45.40;;;8.40;99.90;;;;;;5094956;28;20083;-73
2022/04/14 03:30:18;;;;;;;77.95;43.35;;;8.40;99.90;;;;;;5078353;28;20109;-73
2022/04/14 03:32:46;;;;;;;81.97;43.55;;;8.40;99.90;;;;;;5095106;28;20056;-73
2022/04/14 03:35:13;;;;;;;106.05;48.28;;;8.40;99.90;;;;;;5078723;28;20075;-74
2022/04/14 03:37:40;;;;;;;97.90;48.42;;;8.30;99.90;;;;;;5095130;28;20116;-74
2022/04/14 03:40:07;;;;;;;98.28;49.72;;;8.30;99.90;;;;;;5094690;28;20044;-73
2022/04/14 03:42:35;;;;;;;92.03;48.85;;;8.30;99.90;;;;;;5095270;28;20043;-74
2022/04/14 03:45:08;;;;;;;92.38;48.88;;;8.30;99.90;;;;;;5078063;28;20051;-74
2022/04/14 03:47:37;;;;;;;98.05;48.72;;;8.30;99.90;;;;;;5113137;28;20537;-73
2022/04/14 03:50:04;;;;;;;112.60;53.55;;;8.30;99.90;;;;;;5077602;28;20043;-74
2022/04/14 03:52:30;;;;;;;93.18;49.53;;;8.30;99.90;;;;;;5110648;28;20529;-73
2022/04/14 03:54:56;;;;;;;98.00;45.85;;;8.30;99.90;;;;;;5094285;28;20266;-73
2022/04/14 03:57:22;;;;;;;94.82;47.80;;;8.30;99.90;;;;;;5094681;28;20490;-74
2022/04/14 03:59:47;;;;;;;119.22;54.38;;;8.30;99.90;;;;;;5094689;28;20054;-73
2022/04/14 04:02:13;;;;;;;102.88;51.10;;;8.30;99.90;;;;;;5094670;27;20409;-73
2022/04/14 04:04:39;;;;;;;97.40;48.80;;;8.30;99.90;;;;;;5115005;27;20055;-73
2022/04/14 04:07:06;;;;;;;107.85;52.92;;;8.30;99.90;;;;;;5114532;27;20394;-73
2022/04/14 04:09:33;;;;;;;116.38;55.90;;;8.30;99.90;;;;;;5114913;27;20134;-73
2022/04/14 04:12:00;;;;;;;112.68;51.75;;;8.30;99.90;;;;;;5113987;27;20086;-73
2022/04/14 04:14:26;;;;;;;108.13;53.92;;;8.30;99.90;;;;;;5097577;27;20047;-74
2022/04/14 04:16:53;;;;;;;129.48;58.47;;;8.30;99.90;;;;;;5097735;27;20501;-73
2022/04/14 04:19:18;;;;;;;128.25;58.78;;;8.30;99.90;;;;;;5114334;27;20416;-73
2022/04/14 04:21:51;;;;;;;114.47;54.38;;;8.30;99.90;;;;;;5096879;27;20051;-73
2022/04/14 04:24:20;;;;;;;112.18;54.20;;;8.30;99.90;;;;;;5113854;27;20043;-73
2022/04/14 04:26:46;;;;;;;135.32;57.70;;;8.30;99.90;;;;;;5114335;27;20058;-73
2022/04/14 04:29:12;;;;;;;130.68;57.72;;;8.30;99.90;;;;;;5114308;27;20505;-73
2022/04/14 04:31:38;;;;;;;126.75;58.35;;;8.20;99.90;;;;;;5114652;27;20093;-73
2022/04/14 04:34:04;;;;;;;126.10;58.10;;;8.20;99.90;;;;;;5097190;27;20087;-73
2022/04/14 04:36:31;;;;;;;121.53;54.10;;;8.20;99.90;;;;;;5097312;27;20517;-73
2022/04/14 04:39:01;;;;;;;121.93;56.53;;;8.20;99.90;;;;;;5097946;27;20055;-73
2022/04/14 04:41:28;;;;;;;124.63;58.25;;;8.20;99.90;;;;;;5114080;27;20104;-73
2022/04/14 04:43:54;;;;;;;123.95;57.05;;;8.20;99.90;;;;;;5097413;27;20054;-73
2022/04/14 04:46:20;;;;;;;110.40;52.45;;;8.20;99.90;;;;;;5097178;27;20054;-73
2022/04/14 04:48:46;;;;;;;113.13;55.53;;;8.20;99.90;;;;;;5096813;27;20043;-73
2022/04/14 04:51:12;;;;;;;113.22;56.38;;;8.20;99.90;;;;;;5133115;27;20389;-74
2022/04/14 04:53:38;;;;;;;117.32;57.72;;;8.20;99.90;;;;;;5132718;27;20057;-73
2022/04/14 04:56:07;;;;;;;107.45;54.72;;;8.20;99.90;;;;;;5115058;27;20051;-73
2022/04/14 04:58:33;;;;;;;128.38;58.90;;;8.20;99.90;;;;;;5113271;27;20401;-73
2022/04/14 05:00:59;;;;;;;118.15;56.22;;;8.20;99.90;;;;;;5089201;28;20502;-73
2022/04/14 05:03:24;;;;;;;120.35;58.13;;;8.10;99.90;;;;;;5112278;28;20047;-73
2022/04/14 05:05:50;;;;;;;135.45;60.78;;;8.10;99.90;;;;;;5094029;28;20051;-73
2022/04/14 05:08:16;;;;;;;136.27;59.35;;;8.10;99.90;;;;;;5093673;28;20071;-73
2022/04/14 05:11:09;;;;;;;134.70;59.33;;;8.10;99.90;;;;;;5073926;28;20078;-74
2022/04/14 05:13:36;;;;;;;117.75;57.00;;;8.20;99.90;;;;;;4995781;28;20058;-74
2022/04/14 05:16:04;;;;;;;123.97;57.10;;;8.20;99.90;;;;;;5012052;28;20045;-74
2022/04/14 05:18:31;;;;;;;125.88;55.88;;;8.20;99.90;;;;;;5011429;28;20084;-73
2022/04/14 05:20:57;;;;;;;127.13;57.88;;;8.30;99.90;;;;;;5011663;28;20132;-74
2022/04/14 05:23:24;;;;;;;117.72;56.78;;;8.30;99.90;;;;;;5012200;28;20132;-74
2022/04/14 05:25:49;;;;;;;133.05;58.50;;;8.30;99.90;;;;;;4995981;28;20499;-74
2022/04/14 05:28:17;;;;;;;109.07;53.42;;;8.40;99.90;;;;;;5028635;28;20141;-74
2022/04/14 05:30:42;;;;;;;127.03;59.65;;;8.40;99.90;;;;;;5011953;28;20081;-74
2022/04/14 05:33:10;;;;;;;132.27;60.28;;;8.40;99.90;;;;;;5011777;28;20096;-74
2022/04/14 05:35:39;;;;;;;115.18;56.40;;;8.50;99.90;;;;;;4996053;28;20049;-74
2022/04/14 05:38:06;;;;;;;108.68;52.92;;;8.50;99.90;;;;;;4995735;28;20049;-74
2022/04/14 05:40:32;;;;;;;114.85;55.90;;;8.50;99.90;;;;;;4979256;28;20475;-74
2022/04/14 05:42:58;;;;;;;96.15;51.08;;;8.50;99.90;;;;;;4995111;28;20382;-75
2022/04/14 05:45:25;;;;;;;102.43;50.25;;;8.50;99.90;;;;;;5011992;28;20052;-75
2022/04/14 05:47:56;;;;;;;111.70;54.70;;;8.60;99.90;;;;;;4979460;28;20591;-75
2022/04/14 05:50:36;;;;;;;94.25;51.25;;;8.60;99.90;;;;;;4995447;28;20068;-75
2022/04/14 05:53:09;;;;;;;112.38;53.83;;;8.70;99.90;;;;;;5011232;28;20104;-75
2022/04/14 05:55:35;;;;;;;109.18;52.85;;;8.70;99.90;;;;;;5011664;28;20141;-75
2022/04/14 05:58:09;;;;;;;92.25;51.33;;;8.70;99.90;;;;;;5011729;28;20060;-74
2022/04/14 06:00:36;;;;;;;99.93;51.88;;;8.70;99.90;;;;;;5016121;28;20041;-75
2022/04/14 06:03:02;;;;;;;97.75;52.15;;;8.70;99.90;;;;;;5014964;28;20081;-75
2022/04/14 06:05:30;;;;;;;101.65;53.83;;;8.70;99.90;;;;;;5014516;28;20172;-76
2022/04/14 06:07:56;;;;;;;100.22;53.58;;;8.80;99.90;;;;;;5031490;28;20147;-74
2022/04/14 06:10:23;;;;;;;101.75;53.35;;;8.80;99.90;;;;;;5066245;28;20044;-73
2022/04/14 06:12:51;;;;;;;91.35;49.97;;;8.90;99.90;;;;;;5112014;28;20047;-74
2022/04/14 06:15:17;;;;;;;92.75;49.65;;;8.90;99.90;;;;;;5112677;28;20055;-74
2022/04/14 06:17:44;;;;;;;92.93;50.42;;;9.00;99.90;;;;;;5112739;28;20055;-74
2022/04/14 06:20:11;;;;;;;92.78;48.95;;;9.00;99.90;;;;;;5131467;28;20379;-74
2022/04/14 06:22:41;;;;;;;95.75;49.35;;;9.00;99.90;;;;;;5096038;28;20047;-74
2022/04/14 06:25:12;;;;;;;96.25;49.58;;;9.10;99.90;;;;;;5095447;28;20106;-74
2022/04/14 06:27:45;;;;;;;83.70;48.90;;;9.20;99.90;;;;;;5112831;28;20063;-75
2022/04/14 06:30:15;;;;;;;92.32;48.55;;;9.20;99.90;;;;;;5113886;27;20401;-75
2022/04/14 06:32:59;;;;;;;84.32;47.13;;;9.30;99.90;;;;;;5116356;27;20090;-74
2022/04/14 06:35:26;;;;;;;82.68;47.60;;;9.40;99.90;;;;;;5116053;27;20462;-74
2022/04/14 06:37:53;;;;;;;81.88;45.40;;;9.40;99.90;;;;;;5099049;27;20508;-74
2022/04/14 06:40:20;;;;;;;79.00;46.10;;;9.60;99.90;;;;;;5116278;27;20042;-75
2022/04/14 06:42:46;;;;;;;70.97;43.55;;;9.70;99.90;;;;;;5099291;27;20450;-75
2022/04/14 06:45:16;;;;;;;76.43;43.60;;;9.80;99.90;;;;;;5116661;27;20047;-75
2022/04/14 06:47:42;;;;;;;74.10;39.58;;;10.00;99.90;;;;;;5099582;27;20083;-74
2022/04/14 06:50:09;;;;;;;66.93;39.47;;;10.10;99.90;;;;;;5099099;27;20789;-74
2022/04/14 06:52:38;;;;;;;65.95;38.33;;;10.20;99.90;;;;;;5116192;27;20459;-74
2022/04/14 06:55:04;;;;;;;57.78;39.55;;;10.40;99.90;;;;;;5116146;27;20051;-74
2022/04/14 06:57:31;;;;;;;62.70;39.80;;;10.50;99.90;;;;;;5098953;27;20652;-74
2022/04/14 07:00:18;;;;;;;58.38;38.72;;;10.60;99.90;;;;;;5132091;27;20046;-75
2022/04/14 07:02:52;;;;;;;57.60;36.45;;;10.80;99.90;;;;;;5095655;28;20051;-75
2022/04/14 07:05:19;;;;;;;;;;;10.90;99.90;;;;;;5096317;28;20047;-75
2022/04/14 07:07:45;;;;;;;50.45;30.65;;;11.00;99.90;;;;;;5095559;28;19963;-74
2022/04/14 07:10:13;;;;;;;48.72;31.90;;;11.20;99.90;;;;;;5095546;28;20047;-75
2022/04/14 07:12:39;;;;;;;54.40;31.48;;;11.30;99.90;;;;;;5093520;28;20491;-75
2022/04/14 07:15:06;;;;;;;45.63;29.25;;;11.50;99.90;;;;;;5111944;28;20051;-75
2022/04/14 07:17:34;;;;;;;43.03;26.50;;;11.50;99.90;;;;;;5111782;28;20448;-75
2022/04/14 07:20:01;;;;;;;43.53;26.95;;;11.60;99.90;;;;;;5095648;28;20084;-75
2022/04/14 07:22:45;;;;;;;37.40;25.67;;;11.70;99.90;;;;;;5111810;28;20044;-75
2022/04/14 07:25:11;;;;;;;41.67;26.45;;;11.70;99.90;;;;;;5077382;28;20058;-74
2022/04/14 07:27:42;;;;;;;37.40;23.77;;;12.00;99.90;;;;;;5092654;28;20052;-75
2022/04/14 07:30:18;;;;;;;39.05;22.92;;;12.10;99.90;;;;;;5080912;28;20518;-75
2022/04/14 07:32:45;;;;;;;37.47;22.25;;;12.20;99.90;;;;;;5111144;28;20055;-75
2022/04/14 07:35:15;;;;;;;34.58;22.40;;;12.40;99.90;;;;;;5094660;28;20079;-75
2022/04/14 07:37:44;;;;;;;38.58;21.80;;;12.40;99.90;;;;;;5111789;28;20105;-75
2022/04/14 07:40:11;;;;;;;32.03;20.95;;;12.50;99.90;;;;;;5094450;28;20047;-75
2022/04/14 07:42:39;;;;;;;30.58;20.75;;;12.60;99.90;;;;;;5094208;28;20138;-74
2022/04/14 07:45:07;;;;;;;26.33;17.63;;;12.70;99.90;;;;;;5094364;28;20043;-75
2022/04/14 07:47:33;;;;;;;35.25;20.38;;;12.80;99.90;;;;;;5095349;28;20519;-76
2022/04/14 07:49:59;;;;;;;27.17;18.73;;;12.90;99.90;;;;;;5112322;28;20445;-76
2022/04/14 07:52:25;;;;;;;26.73;18.55;;;13.00;99.90;;;;;;5094376;28;20051;-75
2022/04/14 07:54:53;;;;;;;29.35;19.85;;;13.20;99.90;;;;;;5113210;28;20501;-75
2022/04/14 07:57:25;;;;;;;28.70;18.75;;;13.30;99.90;;;;;;5113332;28;20095;-76
2022/04/14 07:59:51;;;;;;;30.83;20.10;;;13.30;99.90;;;;;;5112082;28;20074;-75
2022/04/14 08:02:19;;;;;;;28.00;18.38;;;13.30;99.90;;;;;;5111396;28;20481;-75
2022/04/14 08:04:46;;;;;;;30.48;21.08;;;13.30;99.90;;;;;;5111664;28;20394;-75
2022/04/14 08:07:12;;;;;;;27.38;19.15;;;13.40;99.90;;;;;;5094527;28;20051;-76
2022/04/14 08:09:38;;;;;;;29.92;19.80;;;13.50;99.90;;;;;;5111505;28;20123;-75
2022/04/14 08:12:14;;;;;;;;;;;13.50;99.90;;;;;;5111990;28;20062;-75
2022/04/14 08:14:40;;;;;;;28.17;19.52;;;13.50;99.90;;;;;;5111529;28;19920;-75
2022/04/14 08:17:08;;;;;;;31.45;19.00;;;13.60;99.90;;;;;;5113016;28;20039;-75
2022/04/14 08:19:34;;;;;;;27.73;18.30;;;13.80;99.90;;;;;;5111278;28;20540;-75
2022/04/14 08:22:05;;;;;;;26.70;17.10;;;14.00;99.90;;;;;;5111108;28;20048;-75
2022/04/14 08:24:34;;;;;;;24.90;17.05;;;14.10;99.90;;;;;;5093440;28;20085;-74
2022/04/14 08:27:00;;;;;;;27.48;17.45;;;14.20;99.90;;;;;;5093824;28;20054;-76
2022/04/14 08:29:26;;;;;;;27.25;18.45;;;14.30;99.90;;;;;;5110782;28;20051;-75
2022/04/14 08:31:51;;;;;;;27.88;17.70;;;14.40;99.90;;;;;;5110812;28;20059;-75
2022/04/14 08:34:20;;;;;;;24.35;16.13;;;14.40;99.90;;;;;;5094471;28;20121;-75
2022/04/14 08:36:46;;;;;;;26.83;16.50;;;14.50;99.90;;;;;;5110309;28;20051;-76
2022/04/14 08:39:12;;;;;;;24.38;14.52;;;14.60;99.90;;;;;;5110372;28;20459;-75
2022/04/14 08:41:44;;;;;;;72.45;20.25;;;14.90;99.90;;;;;;5110686;28;20052;-75
2022/04/14 08:44:13;;;;;;;25.80;16.25;;;15.20;99.90;;;;;;5093930;28;20051;-75
2022/04/14 08:46:42;;;;;;;22.50;14.38;;;15.30;99.90;;;;;;5093834;28;20055;-75
2022/04/14 08:49:10;;;;;;;18.75;11.75;;;15.40;99.90;;;;;;5110622;28;20047;-75
2022/04/14 08:51:36;;;;;;;20.67;11.35;;;15.50;99.90;;;;;;5110489;28;20051;-75
2022/04/14 08:54:03;;;;;;;16.60;10.65;;;15.60;99.90;;;;;;5109816;28;20494;-75
2022/04/14 08:56:30;;;;;;;19.83;11.13;;;15.60;99.90;;;;;;5093043;28;20051;-75
2022/04/14 08:58:56;;;;;;;332.95;46.40;;;15.50;99.90;;;;;;5093289;28;20416;-75
2022/04/14 09:01:25;;;;;;;15.48;10.43;;;15.60;99.90;;;;;;5092830;28;20111;-75
2022/04/14 09:03:54;;;;;;;19.35;10.40;;;15.70;99.90;;;;;;5111391;28;20494;-76
2022/04/14 09:06:21;;;;;;;17.70;10.82;;;15.80;99.90;;;;;;5109868;28;20100;-75
2022/04/14 09:08:48;;;;;;;23.20;12.25;;;15.90;99.90;;;;;;5110121;28;20051;-76
2022/04/14 09:11:14;;;;;;;19.83;11.13;;;16.00;99.90;;;;;;5109400;28;20570;-75
2022/04/14 09:13:43;;;;;;;16.33;10.20;;;16.10;99.90;;;;;;5110114;28;20039;-76
2022/04/14 09:16:10;;;;;;;16.40;10.20;;;16.20;99.90;;;;;;5110468;28;20066;-76
2022/04/14 09:18:36;;;;;;;18.48;10.02;;;16.30;99.90;;;;;;5093058;28;20405;-76
2022/04/14 09:21:04;;;;;;;18.73;11.27;;;16.40;99.90;;;;;;5076018;28;20040;-76
2022/04/14 09:23:31;;;;;;;18.50;11.13;;;16.40;99.90;;;;;;5076124;28;20051;-76
2022/04/14 09:26:02;;;;;;;21.38;11.32;;;16.40;99.90;;;;;;5092775;28;20053;-75
2022/04/14 09:28:29;;;;;;;17.50;10.80;;;16.40;99.90;;;;;;5092927;28;20056;-76
2022/04/14 09:31:00;;;;;;;22.27;11.52;;;16.40;99.90;;;;;;5092385;28;20469;-75
2022/04/14 09:33:27;;;;;;;17.10;11.30;;;16.40;99.90;;;;;;5092688;28;20406;-76
2022/04/14 09:36:09;;;;;;;19.30;10.73;;;16.40;99.90;;;;;;5075888;28;20048;-76
2022/04/14 09:39:08;;;;;;;15.05;9.70;;;16.40;99.90;;;;;;5092525;28;20052;-76
2022/04/14 09:41:37;;;;;;;16.02;10.02;;;16.60;99.90;;;;;;4975902;28;20094;-75
2022/04/14 09:44:13;;;;;;;18.27;9.82;;;16.70;99.90;;;;;;4992104;28;20054;-76
2022/04/14 09:46:44;;;;;;;17.92;10.35;;;16.90;99.90;;;;;;4991197;28;20057;-75
2022/04/14 09:49:14;;;;;;;19.60;10.07;;;17.00;99.90;;;;;;4992076;28;20497;-76
2022/04/14 09:51:46;;;;;;;18.02;10.80;;;16.90;99.90;;;;;;4991600;28;20170;-75
2022/04/14 09:54:15;;;;;;;19.65;11.30;;;17.00;99.90;;;;;;4992183;28;20046;-76
2022/04/14 09:56:45;;;;;;;19.88;11.52;;;16.90;99.90;;;;;;4991825;28;20509;-76
2022/04/14 09:59:16;;;;;;;19.40;11.45;;;16.80;99.90;;;;;;4991772;28;20524;-75
2022/04/14 10:01:43;;;;;;;20.50;10.20;;;16.80;99.90;;;;;;5005222;28;20056;-76
2022/04/14 10:04:34;;;;;;;17.52;10.60;;;16.80;99.90;;;;;;5012347;28;20519;-75
2022/04/14 10:07:16;;;;;;;19.73;10.68;;;16.80;99.90;;;;;;5015445;28;20056;-75
2022/04/14 10:09:48;;;;;;;14.65;9.15;;;16.80;99.90;;;;;;5031974;28;20081;-75
2022/04/14 10:12:22;;;;;;;19.55;9.23;;;17.10;99.90;;;;;;5027611;28;20057;-75
2022/04/14 10:15:10;;;;;;;17.35;8.65;;;17.10;99.90;;;;;;5035438;28;20202;-76
2022/04/14 10:17:40;;;;;;;17.20;8.57;;;17.00;99.90;;;;;;5089796;27;20051;-75
2022/04/14 10:20:09;;;;;;;19.40;8.50;;;17.10;99.90;;;;;;5095396;28;20081;-76
2022/04/14 10:22:37;;;;;;;17.00;9.32;;;17.00;99.90;;;;;;5112424;27;20059;-75
2022/04/14 10:25:05;;;;;;;16.55;8.98;;;17.00;99.90;;;;;;5116631;27;20047;-76
2022/04/14 10:27:33;;;;;;;17.10;9.40;;;17.00;99.90;;;;;;5099856;27;20055;-75
2022/04/14 10:30:03;;;;;;;17.48;8.73;;;17.00;99.90;;;;;;5116813;27;20051;-76
2022/04/14 10:32:34;;;;;;;14.93;8.32;;;17.00;99.90;;;;;;5116613;27;20043;-75
2022/04/14 10:35:03;;;;;;;14.30;8.38;;;16.80;99.90;;;;;;5116590;27;20078;-76
2022/04/14 10:37:34;;;;;;;12.60;7.78;;;17.30;99.90;;;;;;5133798;27;20108;-76
2022/04/14 10:40:00;;;;;;;17.48;7.43;;;17.40;99.90;;;;;;5117023;27;20462;-76
2022/04/14 10:42:28;;;;;;;17.90;7.63;;;17.70;99.90;;;;;;5116053;27;20090;-75
2022/04/14 10:44:56;;;;;;;13.90;7.07;;;17.90;99.90;;;;;;5099490;27;20104;-76
2022/04/14 10:47:50;;;;;;;12.63;6.72;;;18.10;99.90;;;;;;5098500;27;20051;-75
2022/04/14 10:50:20;;;;;;;12.73;7.03;;;18.00;99.90;;;;;;5114048;27;20055;-76
2022/04/14 10:53:09;;;;;;;14.05;7.22;;;18.20;99.90;;;;;;5116236;27;20129;-76
2022/04/14 10:55:35;;;;;;;16.80;8.15;;;18.40;99.90;;;;;;5099426;27;20405;-75
2022/04/14 10:58:07;;;;;;;24.98;8.57;;;18.50;99.90;;;;;;5134926;27;20171;-75
2022/04/14 11:00:36;;;;;;;15.15;8.07;;;18.60;99.90;;;;;;5110883;28;20051;-76
2022/04/14 11:03:11;;;;;;;13.45;8.25;;;18.70;99.90;;;;;;5095694;28;20090;-75
2022/04/14 11:05:41;;;;;;;20.55;8.88;;;18.60;99.90;;;;;;5095509;28;20405;-76
2022/04/14 11:08:47;;;;;;;15.38;7.70;;;18.30;99.90;;;;;;5112704;28;20052;-75
2022/04/14 11:11:14;;;;;;;14.93;7.93;;;18.50;99.90;;;;;;5056323;28;20044;-76
2022/04/14 11:13:52;;;;;;;16.77;7.90;;;18.80;99.90;;;;;;5073585;28;20048;-75
2022/04/14 11:16:44;;;;;;;13.57;6.70;;;18.40;99.90;;;;;;5057614;28;20075;-76
2022/04/14 11:19:18;;;;;;;14.57;7.05;;;18.70;99.90;;;;;;5056829;28;20458;-76
2022/04/14 11:22:08;;;;;;;;;;;19.10;99.90;;;;;;5091274;28;20052;-76
2022/04/14 11:24:40;;;;;;;17.08;7.75;;;19.10;99.90;;;;;;5055888;28;20418;-76
2022/04/14 11:27:21;;;;;;;17.30;7.78;;;18.90;99.90;;;;;;5073144;28;20659;-76
2022/04/14 11:29:57;;;;;;;13.52;7.07;;;18.80;99.90;;;;;;5073783;28;20083;-76
2022/04/14 11:32:40;;;;;;;15.20;7.15;;;18.50;99.90;;;;;;5073037;28;20044;-76
2022/04/14 11:35:18;;;;;;;15.23;7.32;;;18.50;99.90;;;;;;5073874;28;20481;-76
2022/04/14 11:37:54;;;;;;;16.40;7.47;;;18.70;99.90;;;;;;5073082;28;20070;-76
2022/04/14 11:40:21;;;;;;;11.38;6.57;;;19.30;99.90;;;;;;5056845;28;20877;-76
2022/04/14 11:43:15;;;;;;;15.38;7.55;;;19.70;99.90;;;;;;5074063;28;20063;-76
2022/04/14 11:45:42;;;;;;;13.38;6.85;;;19.80;98.90;;;;;;5074726;28;20051;-76
2022/04/14 11:48:10;;;;;;;15.30;6.90;;;19.50;99.20;;;;;;5094980;28;20047;-76
2022/04/14 11:50:36;;;;;;;16.70;7.70;;;19.60;99.80;;;;;;5078083;28;20113;-77
2022/04/14 11:53:10;;;;;;;17.00;6.63;;;19.50;99.40;;;;;;5078072;28;20093;-76
2022/04/14 11:55:37;;;;;;;11.27;6.53;;;19.60;99.30;;;;;;5110851;28;20051;-75
2022/04/14 11:58:08;;;;;;;17.27;6.80;;;19.30;99.90;;;;;;5111307;28;20051;-75
2022/04/14 12:00:48;;;;;;;14.82;5.82;;;19.00;99.50;;;;;;5088101;28;20054;-75
2022/04/14 12:03:15;;;;;;;20.27;6.15;;;19.30;98.90;;;;;;5074315;28;20051;-76
2022/04/14 12:05:51;;;;;;;19.65;6.47;;;19.10;99.40;;;;;;5057096;28;20152;-74
2022/04/14 12:08:17;;;;;;;14.63;6.18;;;19.10;97.90;;;;;;5056884;28;20105;-75
2022/04/14 12:10:44;;;;;;;19.67;6.95;;;19.10;99.20;;;;;;5092337;28;20402;-76
2022/04/14 12:13:11;;;;;;;14.85;5.95;;;19.20;98.80;;;;;;5056953;28;20044;-75
2022/04/14 12:15:37;;;;;;;16.65;6.32;;;19.10;99.30;;;;;;5073538;28;20051;-75
2022/04/14 12:18:12;;;;;;;11.68;5.78;;;18.80;99.10;;;;;;5057144;28;20086;-75
2022/04/14 12:20:41;;;;;;;14.88;5.88;;;18.30;98.10;;;;;;5092288;28;20055;-75
2022/04/14 12:23:15;;;;;;;12.38;5.57;;;17.90;99.90;;;;;;5073318;28;20098;-75
2022/04/14 12:25:46;;;;;;;14.10;5.95;;;18.10;99.90;;;;;;5073686;28;20058;-75
2022/04/14 12:28:16;;;;;;;14.07;5.78;;;17.80;99.90;;;;;;5073376;28;20052;-76
2022/04/14 12:30:42;;;;;;;9.80;4.43;;;17.90;99.90;;;;;;5056776;28;20048;-76
2022/04/14 12:33:09;;;;;;;12.13;4.97;;;17.90;99.90;;;;;;5073525;28;20052;-75
2022/04/14 12:35:37;;;;;;;11.80;4.68;;;17.50;99.90;;;;;;5074065;28;20095;-76
2022/04/14 12:38:18;;;;;;;11.15;4.35;;;17.50;99.90;;;;;;5075682;28;20181;-75
2022/04/14 12:40:57;;;;;;;10.13;4.57;;;17.30;99.90;;;;;;5073735;28;20051;-75
2022/04/14 12:43:26;;;;;;;11.40;4.05;;;17.30;99.90;;;;;;5073018;28;20048;-75
2022/04/14 12:45:53;;;;;;;10.60;3.70;;;17.10;99.90;;;;;;5073230;28;20051;-76
2022/04/14 12:48:26;;;;;;;7.22;3.55;;;17.10;99.90;;;;;;5073169;28;20767;-77
2022/04/14 12:50:57;;;;;;;10.50;4.10;;;16.60;99.90;;;;;;5091580;28;20047;-76